sensor_id;sensor_type;location;lat;lon;timestamp;pressure;altitude;pressure_sealevel;temperature;humidity
80198;BME280;69517;52.030;7.106;2023-12-20T00:01:59;100473.66;;;21.26;74.34
80198;BME280;69517;52.030;7.106;2023-12-20T00:04:25;100479.97;;;21.24;74.08
80198;BME280;69517;52.030;7.106;2023-12-20T00:06:53;100479.03;;;21.25;74.08
80198;BME280;69517;52.030;7.106;2023-12-20T00:09:19;100487.03;;;21.23;73.87
80198;BME280;69517;52.030;7.106;2023-12-20T00:11:45;100481.75;;;21.23;73.67
80198;BME280;69517;52.030;7.106;2023-12-20T00:14:12;100482.84;;;21.21;73.98
80198;BME280;69517;52.030;7.106;2023-12-20T00:16:38;100484.53;;;21.22;74.24
80198;BME280;69517;52.030;7.106;2023-12-20T00:19:04;100482.84;;;21.21;74.06
80198;BME280;69517;52.030;7.106;2023-12-20T00:21:30;100490.09;;;21.17;74.06
80198;BME280;69517;52.030;7.106;2023-12-20T00:23:58;100490.22;;;21.16;74.07
80198;BME280;69517;52.030;7.106;2023-12-20T00:26:24;100484.13;;;21.15;73.97
80198;BME280;69517;52.030;7.106;2023-12-20T00:28:51;100484.19;;;21.14;74.13
80198;BME280;69517;52.030;7.106;2023-12-20T00:31:17;100493.88;;;21.13;73.95
80198;BME280;69517;52.030;7.106;2023-12-20T00:33:43;100493.13;;;21.11;74.07
80198;BME280;69517;52.030;7.106;2023-12-20T00:36:11;100487.03;;;21.11;74.17
80198;BME280;69517;52.030;7.106;2023-12-20T00:38:37;100481.91;;;21.09;74.12
80198;BME280;69517;52.030;7.106;2023-12-20T00:41:05;100479.38;;;21.08;73.99
80198;BME280;69517;52.030;7.106;2023-12-20T00:43:31;100482.09;;;21.06;73.90
80198;BME280;69517;52.030;7.106;2023-12-20T00:45:57;100487.38;;;21.06;74.02
80198;BME280;69517;52.030;7.106;2023-12-20T00:48:25;100486.66;;;21.04;74.06
80198;BME280;69517;52.030;7.106;2023-12-20T00:50:52;100487.59;;;21.03;74.29
80198;BME280;69517;52.030;7.106;2023-12-20T00:53:18;100490.09;;;21.04;74.16
80198;BME280;69517;52.030;7.106;2023-12-20T00:55:44;100484.97;;;21.03;74.34
80198;BME280;69517;52.030;7.106;2023-12-20T00:58:12;100481.50;;;21.02;74.29
80198;BME280;69517;52.030;7.106;2023-12-20T01:00:40;100478.22;;;20.99;74.34
80198;BME280;69517;52.030;7.106;2023-12-20T01:03:07;100472.03;;;21.00;74.43
80198;BME280;69517;52.030;7.106;2023-12-20T01:05:33;100472.25;;;20.97;74.28
80198;BME280;69517;52.030;7.106;2023-12-20T01:07:59;100483.63;;;20.97;74.55
80198;BME280;69517;52.030;7.106;2023-12-20T01:10:28;100486.25;;;20.97;74.40
80198;BME280;69517;52.030;7.106;2023-12-20T01:12:54;100482.88;;;20.95;74.51
80198;BME280;69517;52.030;7.106;2023-12-20T01:15:22;100481.00;;;20.97;74.48
80198;BME280;69517;52.030;7.106;2023-12-20T01:17:48;100484.75;;;20.93;74.57
80198;BME280;69517;52.030;7.106;2023-12-20T01:20:15;100482.28;;;20.92;74.58
80198;BME280;69517;52.030;7.106;2023-12-20T01:22:43;100480.34;;;20.94;74.31
80198;BME280;69517;52.030;7.106;2023-12-20T01:25:11;100474.25;;;20.93;74.29
80198;BME280;69517;52.030;7.106;2023-12-20T01:27:37;100472.69;;;20.91;74.53
80198;BME280;69517;52.030;7.106;2023-12-20T01:30:04;100473.53;;;20.91;73.96
80198;BME280;69517;52.030;7.106;2023-12-20T01:32:31;100458.81;;;20.89;74.40
80198;BME280;69517;52.030;7.106;2023-12-20T01:34:58;100471.00;;;20.90;74.51
80198;BME280;69517;52.030;7.106;2023-12-20T01:37:24;100467.53;;;20.89;74.47
80198;BME280;69517;52.030;7.106;2023-12-20T01:39:51;100464.19;;;20.87;74.16
80198;BME280;69517;52.030;7.106;2023-12-20T01:42:18;100468.50;;;20.88;74.03
80198;BME280;69517;52.030;7.106;2023-12-20T01:44:44;100479.00;;;20.88;73.87
80198;BME280;69517;52.030;7.106;2023-12-20T01:47:10;100471.97;;;20.89;73.69
80198;BME280;69517;52.030;7.106;2023-12-20T01:49:38;100479.09;;;20.87;73.96
80198;BME280;69517;52.030;7.106;2023-12-20T01:52:04;100481.88;;;20.85;73.95
80198;BME280;69517;52.030;7.106;2023-12-20T01:54:31;100481.03;;;20.85;73.96
80198;BME280;69517;52.030;7.106;2023-12-20T01:56:57;100486.28;;;20.85;73.94
80198;BME280;69517;52.030;7.106;2023-12-20T01:59:24;100476.81;;;20.82;73.95
80198;BME280;69517;52.030;7.106;2023-12-20T02:01:50;100479.53;;;20.81;74.29
80198;BME280;69517;52.030;7.106;2023-12-20T02:04:16;100475.97;;;20.82;74.00
80198;BME280;69517;52.030;7.106;2023-12-20T02:06:44;100479.44;;;20.82;74.07
80198;BME280;69517;52.030;7.106;2023-12-20T02:09:12;100472.63;;;20.80;73.93
80198;BME280;69517;52.030;7.106;2023-12-20T02:11:38;100466.63;;;20.78;73.96
80198;BME280;69517;52.030;7.106;2023-12-20T02:14:04;100469.25;;;20.78;73.89
80198;BME280;69517;52.030;7.106;2023-12-20T02:16:31;100479.66;;;20.79;73.87
80198;BME280;69517;52.030;7.106;2023-12-20T02:18:57;100477.13;;;20.78;74.03
80198;BME280;69517;52.030;7.106;2023-12-20T02:21:25;100484.19;;;20.77;73.91
80198;BME280;69517;52.030;7.106;2023-12-20T02:23:57;100480.72;;;20.77;74.04
80198;BME280;69517;52.030;7.106;2023-12-20T02:26:24;100481.66;;;20.76;74.20
80198;BME280;69517;52.030;7.106;2023-12-20T02:28:50;100466.84;;;20.75;73.89
80198;BME280;69517;52.030;7.106;2023-12-20T02:31:16;100470.53;;;20.72;74.12
80198;BME280;69517;52.030;7.106;2023-12-20T02:33:42;100465.38;;;20.71;74.37
80198;BME280;69517;52.030;7.106;2023-12-20T02:36:09;100480.19;;;20.72;74.08
80198;BME280;69517;52.030;7.106;2023-12-20T02:38:36;100469.69;;;20.72;73.81
80198;BME280;69517;52.030;7.106;2023-12-20T02:41:03;100467.06;;;20.72;73.93
80198;BME280;69517;52.030;7.106;2023-12-20T02:43:29;100473.25;;;20.71;74.06
80198;BME280;69517;52.030;7.106;2023-12-20T02:45:55;100463.69;;;20.70;73.83
80198;BME280;69517;52.030;7.106;2023-12-20T02:48:22;100467.25;;;20.69;73.81
80198;BME280;69517;52.030;7.106;2023-12-20T02:50:48;100465.47;;;20.69;73.83
80198;BME280;69517;52.030;7.106;2023-12-20T02:53:15;100467.41;;;20.67;74.15
80198;BME280;69517;52.030;7.106;2023-12-20T02:55:42;100456.88;;;20.67;73.93
80198;BME280;69517;52.030;7.106;2023-12-20T02:58:09;100455.19;;;20.66;73.85
80198;BME280;69517;52.030;7.106;2023-12-20T03:00:35;100456.03;;;20.67;73.76
80198;BME280;69517;52.030;7.106;2023-12-20T03:03:01;100447.41;;;20.64;73.78
80198;BME280;69517;52.030;7.106;2023-12-20T03:05:27;100448.25;;;20.65;73.92
80198;BME280;69517;52.030;7.106;2023-12-20T03:07:54;100447.41;;;20.64;73.78
80198;BME280;69517;52.030;7.106;2023-12-20T03:10:20;100458.78;;;20.65;73.66
80198;BME280;69517;52.030;7.106;2023-12-20T03:12:48;100458.78;;;20.65;73.70
80198;BME280;69517;52.030;7.106;2023-12-20T03:15:14;100457.19;;;20.62;73.73
80198;BME280;69517;52.030;7.106;2023-12-20T03:17:40;100451.84;;;20.64;73.73
80198;BME280;69517;52.030;7.106;2023-12-20T03:20:07;100439.63;;;20.63;73.65
80198;BME280;69517;52.030;7.106;2023-12-20T03:22:34;100449.31;;;20.62;73.69
80198;BME280;69517;52.030;7.106;2023-12-20T03:25:00;100446.69;;;20.62;73.69
80198;BME280;69517;52.030;7.106;2023-12-20T03:27:26;100426.59;;;20.61;73.76
80198;BME280;69517;52.030;7.106;2023-12-20T03:29:54;100424.94;;;20.60;73.94
80198;BME280;69517;52.030;7.106;2023-12-20T03:32:20;100427.59;;;20.60;73.66
80198;BME280;69517;52.030;7.106;2023-12-20T03:34:47;100434.63;;;20.60;73.69
80198;BME280;69517;52.030;7.106;2023-12-20T03:37:13;100416.34;;;20.58;73.69
80198;BME280;69517;52.030;7.106;2023-12-20T03:39:39;100427.69;;;20.59;73.75
80198;BME280;69517;52.030;7.106;2023-12-20T03:42:06;100425.91;;;20.59;73.71
80198;BME280;69517;52.030;7.106;2023-12-20T03:44:32;100429.47;;;20.58;73.89
80198;BME280;69517;52.030;7.106;2023-12-20T03:46:59;100433.03;;;20.57;73.66
80198;BME280;69517;52.030;7.106;2023-12-20T03:49:26;100448.78;;;20.57;73.89
80198;BME280;69517;52.030;7.106;2023-12-20T03:51:52;100433.97;;;20.56;73.74
80198;BME280;69517;52.030;7.106;2023-12-20T03:54:18;100427.88;;;20.56;73.86
80198;BME280;69517;52.030;7.106;2023-12-20T03:56:44;100426.22;;;20.55;73.66
80198;BME280;69517;52.030;7.106;2023-12-20T03:59:11;100426.09;;;20.56;73.60
80198;BME280;69517;52.030;7.106;2023-12-20T04:01:37;100425.16;;;20.57;73.46
80198;BME280;69517;52.030;7.106;2023-12-20T04:04:04;100424.94;;;20.60;73.58
80198;BME280;69517;52.030;7.106;2023-12-20T04:06:31;100424.63;;;20.65;73.33
80198;BME280;69517;52.030;7.106;2023-12-20T04:08:57;100422.59;;;20.69;73.36
80198;BME280;69517;52.030;7.106;2023-12-20T04:11:23;100415.25;;;20.74;73.14
80198;BME280;69517;52.030;7.106;2023-12-20T04:13:49;100425.53;;;20.77;73.01
80198;BME280;69517;52.030;7.106;2023-12-20T04:16:16;100425.19;;;20.81;72.87
80198;BME280;69517;52.030;7.106;2023-12-20T04:18:42;100428.66;;;20.82;72.71
80198;BME280;69517;52.030;7.106;2023-12-20T04:21:10;100434.75;;;20.82;72.80
80198;BME280;69517;52.030;7.106;2023-12-20T04:23:36;100441.59;;;20.85;72.74
80198;BME280;69517;52.030;7.106;2023-12-20T04:26:02;100444.94;;;20.87;72.64
80198;BME280;69517;52.030;7.106;2023-12-20T04:28:29;100449.25;;;20.88;72.65
80198;BME280;69517;52.030;7.106;2023-12-20T04:30:55;100439.59;;;20.88;72.58
80198;BME280;69517;52.030;7.106;2023-12-20T04:33:22;100440.22;;;20.92;72.54
80198;BME280;69517;52.030;7.106;2023-12-20T04:35:48;100433.03;;;20.94;72.63
80198;BME280;69517;52.030;7.106;2023-12-20T04:38:16;100427.78;;;20.94;72.46
80198;BME280;69517;52.030;7.106;2023-12-20T04:40:42;100435.56;;;20.95;72.41
80198;BME280;69517;52.030;7.106;2023-12-20T04:43:08;100434.63;;;20.96;72.33
80198;BME280;69517;52.030;7.106;2023-12-20T04:45:35;100430.91;;;20.99;72.36
80198;BME280;69517;52.030;7.106;2023-12-20T04:48:01;100422.09;;;21.00;72.46
80198;BME280;69517;52.030;7.106;2023-12-20T04:50:28;100432.50;;;21.01;72.43
80198;BME280;69517;52.030;7.106;2023-12-20T04:52:54;100435.03;;;21.03;72.51
80198;BME280;69517;52.030;7.106;2023-12-20T04:55:22;100429.78;;;21.03;72.28
80198;BME280;69517;52.030;7.106;2023-12-20T04:57:48;100420.94;;;21.04;72.30
80198;BME280;69517;52.030;7.106;2023-12-20T05:00:14;100408.59;;;21.04;72.29
80198;BME280;69517;52.030;7.106;2023-12-20T05:02:41;100417.34;;;21.05;72.21
80198;BME280;69517;52.030;7.106;2023-12-20T05:05:07;100421.66;;;21.06;72.25
80198;BME280;69517;52.030;7.106;2023-12-20T05:07:34;100411.13;;;21.06;72.32
80198;BME280;69517;52.030;7.106;2023-12-20T05:10:00;100411.97;;;21.06;72.26
80198;BME280;69517;52.030;7.106;2023-12-20T05:12:28;100422.38;;;21.08;72.24
80198;BME280;69517;52.030;7.106;2023-12-20T05:14:54;100426.81;;;21.08;72.30
80198;BME280;69517;52.030;7.106;2023-12-20T05:17:20;100415.34;;;21.09;72.31
80198;BME280;69517;52.030;7.106;2023-12-20T05:19:46;100410.19;;;21.07;72.24
80198;BME280;69517;52.030;7.106;2023-12-20T05:22:13;100417.88;;;21.10;72.30
80198;BME280;69517;52.030;7.106;2023-12-20T05:24:39;100401.13;;;21.11;72.27
80198;BME280;69517;52.030;7.106;2023-12-20T05:27:05;100390.59;;;21.11;72.11
80198;BME280;69517;52.030;7.106;2023-12-20T05:29:33;100385.47;;;21.10;72.24
80198;BME280;69517;52.030;7.106;2023-12-20T05:31:59;100395.84;;;21.11;72.08
80198;BME280;69517;52.030;7.106;2023-12-20T05:34:25;100401.13;;;21.11;72.24
80198;BME280;69517;52.030;7.106;2023-12-20T05:36:51;100413.41;;;21.11;72.18
80198;BME280;69517;52.030;7.106;2023-12-20T05:39:18;100413.41;;;21.11;72.19
80198;BME280;69517;52.030;7.106;2023-12-20T05:41:44;100405.44;;;21.12;72.09
80198;BME280;69517;52.030;7.106;2023-12-20T05:44:10;100411.53;;;21.13;72.21
80198;BME280;69517;52.030;7.106;2023-12-20T05:46:38;100420.25;;;21.13;72.10
80198;BME280;69517;52.030;7.106;2023-12-20T05:49:05;100415.84;;;21.14;72.17
80198;BME280;69517;52.030;7.106;2023-12-20T05:51:31;100411.44;;;21.14;72.23
80198;BME280;69517;52.030;7.106;2023-12-20T05:53:57;100421.03;;;21.15;72.15
80198;BME280;69517;52.030;7.106;2023-12-20T05:56:24;100415.78;;;21.15;72.01
80198;BME280;69517;52.030;7.106;2023-12-20T05:58:50;100413.13;;;21.15;72.15
80198;BME280;69517;52.030;7.106;2023-12-20T06:01:16;100412.19;;;21.16;72.11
80198;BME280;69517;52.030;7.106;2023-12-20T06:03:44;100411.22;;;21.17;72.05
80198;BME280;69517;52.030;7.106;2023-12-20T06:06:11;100421.72;;;21.17;71.99
80198;BME280;69517;52.030;7.106;2023-12-20T06:08:37;100413.00;;;21.17;72.05
80198;BME280;69517;52.030;7.106;2023-12-20T06:11:04;100404.19;;;21.18;72.09
80198;BME280;69517;52.030;7.106;2023-12-20T06:13:30;100402.38;;;21.18;72.03
80198;BME280;69517;52.030;7.106;2023-12-20T06:15:56;100401.44;;;21.19;71.97
80198;BME280;69517;52.030;7.106;2023-12-20T06:18:23;100402.28;;;21.20;71.98
80198;BME280;69517;52.030;7.106;2023-12-20T06:20:51;100404.91;;;21.20;71.97
80198;BME280;69517;52.030;7.106;2023-12-20T06:23:17;100419.75;;;21.21;72.00
80198;BME280;69517;52.030;7.106;2023-12-20T06:25:43;100418.91;;;21.20;72.04
80198;BME280;69517;52.030;7.106;2023-12-20T06:28:10;100408.28;;;21.22;71.97
80198;BME280;69517;52.030;7.106;2023-12-20T06:30:39;100408.28;;;21.22;71.98
80198;BME280;69517;52.030;7.106;2023-12-20T06:33:05;100410.91;;;21.22;71.96
80198;BME280;69517;52.030;7.106;2023-12-20T06:35:34;100413.41;;;21.23;71.88
80198;BME280;69517;52.030;7.106;2023-12-20T06:38:02;100412.56;;;21.23;71.96
80198;BME280;69517;52.030;7.106;2023-12-20T06:40:28;100414.25;;;21.24;71.87
80198;BME280;69517;52.030;7.106;2023-12-20T06:42:55;100413.41;;;21.23;72.00
80198;BME280;69517;52.030;7.106;2023-12-20T06:45:21;100414.13;;;21.25;71.84
80198;BME280;69517;52.030;7.106;2023-12-20T06:47:47;100402.44;;;21.29;71.64
80198;BME280;69517;52.030;7.106;2023-12-20T06:50:13;100400.44;;;21.33;71.51
80198;BME280;69517;52.030;7.106;2023-12-20T06:52:40;100406.53;;;21.33;71.49
80198;BME280;69517;52.030;7.106;2023-12-20T06:55:08;100408.88;;;20.27;64.13
80198;BME280;69517;52.030;7.106;2023-12-20T06:57:34;100419.66;;;18.64;63.30
80198;BME280;69517;52.030;7.106;2023-12-20T07:00:01;100407.00;;;18.00;61.90
80198;BME280;69517;52.030;7.106;2023-12-20T07:02:27;100398.78;;;17.92;61.60
80198;BME280;69517;52.030;7.106;2023-12-20T07:04:55;100408.97;;;17.97;60.40
80198;BME280;69517;52.030;7.106;2023-12-20T07:07:21;100401.75;;;17.72;59.72
80198;BME280;69517;52.030;7.106;2023-12-20T07:09:49;100398.63;;;17.35;60.25
80198;BME280;69517;52.030;7.106;2023-12-20T07:12:17;100403.47;;;16.96;60.48
80198;BME280;69517;52.030;7.106;2023-12-20T07:14:44;100392.59;;;16.72;60.11
80198;BME280;69517;52.030;7.106;2023-12-20T07:17:10;100395.19;;;16.56;60.13
80198;BME280;69517;52.030;7.106;2023-12-20T07:19:38;100395.53;;;16.50;60.42
80198;BME280;69517;52.030;7.106;2023-12-20T07:22:05;100401.41;;;16.54;60.42
80198;BME280;69517;52.030;7.106;2023-12-20T07:24:31;100402.94;;;16.58;60.20
80198;BME280;69517;52.030;7.106;2023-12-20T07:26:58;100400.88;;;16.47;60.33
80198;BME280;69517;52.030;7.106;2023-12-20T07:29:26;100400.31;;;16.42;60.38
80198;BME280;69517;52.030;7.106;2023-12-20T07:31:53;100402.25;;;16.39;60.47
80198;BME280;69517;52.030;7.106;2023-12-20T07:34:19;100402.44;;;16.18;60.75
80198;BME280;69517;52.030;7.106;2023-12-20T07:36:45;100397.78;;;17.35;60.00
80198;BME280;69517;52.030;7.106;2023-12-20T07:39:12;100392.31;;;18.54;58.45
80198;BME280;69517;52.030;7.106;2023-12-20T07:41:38;100382.84;;;19.34;56.44
80198;BME280;69517;52.030;7.106;2023-12-20T07:44:04;100387.28;;;19.85;55.52
80198;BME280;69517;52.030;7.106;2023-12-20T07:46:32;100373.31;;;20.10;57.56
80198;BME280;69517;52.030;7.106;2023-12-20T07:48:59;100377.28;;;20.29;57.21
80198;BME280;69517;52.030;7.106;2023-12-20T07:51:25;100383.91;;;20.34;57.53
80198;BME280;69517;52.030;7.106;2023-12-20T07:53:51;100380.63;;;20.43;57.52
80198;BME280;69517;52.030;7.106;2023-12-20T07:56:18;100383.47;;;20.53;57.54
80198;BME280;69517;52.030;7.106;2023-12-20T07:58:44;100391.66;;;20.61;57.74
80198;BME280;69517;52.030;7.106;2023-12-20T08:01:11;100379.88;;;20.67;57.86
80198;BME280;69517;52.030;7.106;2023-12-20T08:03:39;100392.56;;;20.73;57.99
80198;BME280;69517;52.030;7.106;2023-12-20T08:06:05;100383.50;;;20.77;58.51
80198;BME280;69517;52.030;7.106;2023-12-20T08:08:32;100379.69;;;20.81;58.90
80198;BME280;69517;52.030;7.106;2023-12-20T08:10:58;100387.56;;;20.81;59.31
80198;BME280;69517;52.030;7.106;2023-12-20T08:13:25;100389.91;;;20.85;59.58
80198;BME280;69517;52.030;7.106;2023-12-20T08:15:51;100376.84;;;20.84;59.94
80198;BME280;69517;52.030;7.106;2023-12-20T08:18:17;100384.50;;;20.87;60.17
80198;BME280;69517;52.030;7.106;2023-12-20T08:20:45;100381.31;;;20.94;60.24
80198;BME280;69517;52.030;7.106;2023-12-20T08:23:13;100383.50;;;21.00;60.41
80198;BME280;69517;52.030;7.106;2023-12-20T08:25:39;100386.78;;;21.04;60.48
80198;BME280;69517;52.030;7.106;2023-12-20T08:28:05;100392.13;;;21.15;60.42
80198;BME280;69517;52.030;7.106;2023-12-20T08:30:32;100383.13;;;21.18;60.42
80198;BME280;69517;52.030;7.106;2023-12-20T08:32:59;100394.28;;;21.21;60.63
80198;BME280;69517;52.030;7.106;2023-12-20T08:35:25;100394.03;;;21.24;60.73
80198;BME280;69517;52.030;7.106;2023-12-20T08:37:53;100395.72;;;21.25;60.84
80198;BME280;69517;52.030;7.106;2023-12-20T08:40:19;100391.06;;;21.29;60.95
80198;BME280;69517;52.030;7.106;2023-12-20T08:42:46;100393.59;;;21.30;61.14
80198;BME280;69517;52.030;7.106;2023-12-20T08:45:12;100389.81;;;21.34;61.23
80198;BME280;69517;52.030;7.106;2023-12-20T08:47:38;100386.00;;;21.38;61.16
80198;BME280;69517;52.030;7.106;2023-12-20T08:50:06;100384.53;;;21.34;61.36
80198;BME280;69517;52.030;7.106;2023-12-20T08:52:33;100374.03;;;21.34;61.38
80198;BME280;69517;52.030;7.106;2023-12-20T08:55:00;100380.00;;;21.36;61.60
80198;BME280;69517;52.030;7.106;2023-12-20T08:57:26;100372.84;;;21.38;61.68
80198;BME280;69517;52.030;7.106;2023-12-20T08:59:53;100369.97;;;21.41;61.61
80198;BME280;69517;52.030;7.106;2023-12-20T09:02:19;100366.03;;;21.47;61.60
80198;BME280;69517;52.030;7.106;2023-12-20T09:04:45;100359.81;;;21.48;61.64
80198;BME280;69517;52.030;7.106;2023-12-20T09:07:21;100360.66;;;21.49;61.69
80198;BME280;69517;52.030;7.106;2023-12-20T09:09:47;100360.91;;;21.45;61.89
80198;BME280;69517;52.030;7.106;2023-12-20T09:12:15;100355.97;;;21.41;62.10
80198;BME280;69517;52.030;7.106;2023-12-20T09:14:41;100352.53;;;21.40;62.14
80198;BME280;69517;52.030;7.106;2023-12-20T09:17:08;100350.34;;;21.34;62.56
80198;BME280;69517;52.030;7.106;2023-12-20T09:19:36;100349.84;;;21.29;63.10
80198;BME280;69517;52.030;7.106;2023-12-20T09:22:03;100342.97;;;21.39;63.02
80198;BME280;69517;52.030;7.106;2023-12-20T09:24:29;100338.91;;;21.47;62.86
80198;BME280;69517;52.030;7.106;2023-12-20T09:26:56;100350.16;;;21.49;62.84
80198;BME280;69517;52.030;7.106;2023-12-20T09:29:23;100360.94;;;21.57;63.10
80198;BME280;69517;52.030;7.106;2023-12-20T09:31:50;100344.19;;;21.58;63.29
80198;BME280;69517;52.030;7.106;2023-12-20T09:34:16;100328.53;;;21.56;63.64
80198;BME280;69517;52.030;7.106;2023-12-20T09:36:43;100339.88;;;21.57;63.61
80198;BME280;69517;52.030;7.106;2023-12-20T09:39:11;100357.47;;;21.56;63.77
80198;BME280;69517;52.030;7.106;2023-12-20T09:41:37;100365.47;;;21.55;63.83
80198;BME280;69517;52.030;7.106;2023-12-20T09:44:08;100360.00;;;21.58;63.88
80198;BME280;69517;52.030;7.106;2023-12-20T09:46:40;100362.63;;;21.58;63.91
80198;BME280;69517;52.030;7.106;2023-12-20T09:49:09;100362.25;;;21.62;63.97
80198;BME280;69517;52.030;7.106;2023-12-20T09:51:36;100367.28;;;21.65;63.75
80198;BME280;69517;52.030;7.106;2023-12-20T09:54:02;100376.25;;;21.63;63.90
80198;BME280;69517;52.030;7.106;2023-12-20T09:56:29;100369.56;;;21.59;64.29
80198;BME280;69517;52.030;7.106;2023-12-20T09:58:55;100378.41;;;21.58;65.02
80198;BME280;69517;52.030;7.106;2023-12-20T10:01:22;100380.41;;;21.54;65.40
80198;BME280;69517;52.030;7.106;2023-12-20T10:03:51;100380.31;;;21.56;65.48
80198;BME280;69517;52.030;7.106;2023-12-20T10:06:18;100382.94;;;21.56;65.65
80198;BME280;69517;52.030;7.106;2023-12-20T10:08:44;100398.13;;;21.52;65.79
80198;BME280;69517;52.030;7.106;2023-12-20T10:11:11;100379.69;;;21.52;65.87
80198;BME280;69517;52.030;7.106;2023-12-20T10:13:39;100383.19;;;21.53;65.87
80198;BME280;69517;52.030;7.106;2023-12-20T10:16:05;100383.19;;;21.53;65.94
80198;BME280;69517;52.030;7.106;2023-12-20T10:18:32;100368.34;;;21.52;66.01
80198;BME280;69517;52.030;7.106;2023-12-20T10:21:00;100376.56;;;21.47;66.23
80198;BME280;69517;52.030;7.106;2023-12-20T10:23:26;100381.72;;;21.49;66.18
80198;BME280;69517;52.030;7.106;2023-12-20T10:25:55;100385.28;;;21.48;66.13
80198;BME280;69517;52.030;7.106;2023-12-20T10:28:21;100379.19;;;21.47;66.28
80198;BME280;69517;52.030;7.106;2023-12-20T10:30:52;100377.41;;;21.48;66.26
80198;BME280;69517;52.030;7.106;2023-12-20T10:33:23;100378.38;;;21.47;66.48
80198;BME280;69517;52.030;7.106;2023-12-20T10:35:49;100377.53;;;21.46;66.62
80198;BME280;69517;52.030;7.106;2023-12-20T10:38:17;100375.84;;;21.45;66.42
80198;BME280;69517;52.030;7.106;2023-12-20T10:40:44;100369.75;;;21.44;66.47
80198;BME280;69517;52.030;7.106;2023-12-20T10:43:11;100360.28;;;21.42;66.51
80198;BME280;69517;52.030;7.106;2023-12-20T10:45:38;100353.34;;;21.41;66.50
80198;BME280;69517;52.030;7.106;2023-12-20T10:48:04;100357.06;;;21.38;66.55
80198;BME280;69517;52.030;7.106;2023-12-20T10:50:31;100366.84;;;21.36;66.53
80198;BME280;69517;52.030;7.106;2023-12-20T10:52:58;100360.63;;;21.37;66.60
80198;BME280;69517;52.030;7.106;2023-12-20T10:55:25;100366.84;;;21.36;66.60
80198;BME280;69517;52.030;7.106;2023-12-20T10:57:52;100360.75;;;21.36;66.60
80198;BME280;69517;52.030;7.106;2023-12-20T11:00:18;100350.47;;;21.33;66.53
80198;BME280;69517;52.030;7.106;2023-12-20T11:02:44;100354.88;;;21.32;66.61
80198;BME280;69517;52.030;7.106;2023-12-20T11:05:13;100347.84;;;21.33;66.44
80198;BME280;69517;52.030;7.106;2023-12-20T11:07:46;100349.72;;;21.31;66.58
80198;BME280;69517;52.030;7.106;2023-12-20T11:10:15;100341.84;;;21.31;66.43
80198;BME280;69517;52.030;7.106;2023-12-20T11:12:46;100347.22;;;21.29;66.24
80198;BME280;69517;52.030;7.106;2023-12-20T11:15:14;100336.00;;;21.27;66.19
80198;BME280;69517;52.030;7.106;2023-12-20T11:17:42;100328.22;;;21.26;66.16
80198;BME280;69517;52.030;7.106;2023-12-20T11:20:11;100330.72;;;21.27;66.22
80198;BME280;69517;52.030;7.106;2023-12-20T11:22:38;100329.44;;;21.33;66.23
80198;BME280;69517;52.030;7.106;2023-12-20T11:25:07;100322.59;;;21.30;66.21
80198;BME280;69517;52.030;7.106;2023-12-20T11:27:34;100305.97;;;21.30;66.33
80198;BME280;69517;52.030;7.106;2023-12-20T11:30:04;100310.91;;;21.34;66.24
80198;BME280;69517;52.030;7.106;2023-12-20T11:32:34;100291.22;;;21.40;66.14
80198;BME280;69517;52.030;7.106;2023-12-20T11:35:01;100298.00;;;21.42;65.82
80198;BME280;69517;52.030;7.106;2023-12-20T11:37:31;100310.09;;;21.45;66.02
80198;BME280;69517;52.030;7.106;2023-12-20T11:40:00;100313.44;;;21.47;65.82
80198;BME280;69517;52.030;7.106;2023-12-20T11:42:26;100298.63;;;21.46;65.89
80198;BME280;69517;52.030;7.106;2023-12-20T11:44:53;100301.25;;;21.46;65.86
80198;BME280;69517;52.030;7.106;2023-12-20T11:47:20;100305.53;;;21.47;65.83
80198;BME280;69517;52.030;7.106;2023-12-20T11:49:47;100281.16;;;21.45;65.92
80198;BME280;69517;52.030;7.106;2023-12-20T11:52:13;100278.66;;;21.43;65.99
80198;BME280;69517;52.030;7.106;2023-12-20T11:54:39;100289.16;;;21.43;66.04
80198;BME280;69517;52.030;7.106;2023-12-20T11:57:06;100289.16;;;21.43;66.11
80198;BME280;69517;52.030;7.106;2023-12-20T11:59:32;100275.28;;;21.41;66.25
80198;BME280;69517;52.030;7.106;2023-12-20T12:01:58;100266.34;;;21.44;66.20
80198;BME280;69517;52.030;7.106;2023-12-20T12:04:27;100269.19;;;21.41;66.44
80198;BME280;69517;52.030;7.106;2023-12-20T12:06:54;100270.66;;;21.45;66.50
80198;BME280;69517;52.030;7.106;2023-12-20T12:09:20;100258.56;;;21.42;66.44
80198;BME280;69517;52.030;7.106;2023-12-20T12:11:46;100262.75;;;21.45;66.53
80198;BME280;69517;52.030;7.106;2023-12-20T12:14:13;100258.44;;;21.44;66.53
80198;BME280;69517;52.030;7.106;2023-12-20T12:16:39;100263.72;;;21.44;66.46
80198;BME280;69517;52.030;7.106;2023-12-20T12:19:07;100252.34;;;21.43;66.75
80198;BME280;69517;52.030;7.106;2023-12-20T12:21:34;100257.59;;;21.43;66.68
80198;BME280;69517;52.030;7.106;2023-12-20T12:24:07;100264.75;;;21.41;66.69
80198;BME280;69517;52.030;7.106;2023-12-20T12:26:33;100249.00;;;21.41;66.81
80198;BME280;69517;52.030;7.106;2023-12-20T12:29:00;100252.47;;;21.42;66.98
80198;BME280;69517;52.030;7.106;2023-12-20T12:31:26;100258.44;;;21.44;66.95
80198;BME280;69517;52.030;7.106;2023-12-20T12:33:52;100266.44;;;21.42;67.06
80198;BME280;69517;52.030;7.106;2023-12-20T12:36:19;100262.88;;;21.43;66.98
80198;BME280;69517;52.030;7.106;2023-12-20T12:38:46;100248.75;;;21.44;66.94
80198;BME280;69517;52.030;7.106;2023-12-20T12:41:13;100242.66;;;21.44;67.00
80198;BME280;69517;52.030;7.106;2023-12-20T12:43:40;100238.25;;;21.44;67.00
80198;BME280;69517;52.030;7.106;2023-12-20T12:46:06;100231.09;;;21.47;67.03
80198;BME280;69517;52.030;7.106;2023-12-20T12:48:32;100236.34;;;21.47;67.01